createdAt,value
2022-10-20T00:00:35.430Z,15.22
2022-10-20T00:01:35.431Z,15.28
2022-10-20T00:02:35.418Z,15.33
2022-10-20T00:03:35.432Z,15.37
2022-10-20T00:04:35.432Z,15.41
2022-10-20T00:05:35.431Z,15.45
2022-10-20T00:06:35.419Z,15.5
2022-10-20T00:07:35.433Z,15.53
2022-10-20T00:08:35.432Z,15.56
2022-10-20T00:09:35.420Z,15.59
2022-10-20T00:10:35.420Z,15.61
2022-10-20T00:11:35.433Z,15.63
2022-10-20T00:12:35.433Z,15.64
2022-10-20T00:13:35.421Z,15.65
2022-10-20T00:14:35.421Z,15.65
2022-10-20T00:15:35.434Z,15.65
2022-10-20T00:16:35.434Z,15.66
2022-10-20T00:17:35.422Z,15.67
2022-10-20T00:18:35.436Z,15.68
2022-10-20T00:19:35.435Z,15.7
2022-10-20T00:20:35.435Z,15.71
2022-10-20T00:21:35.423Z,15.7
2022-10-20T00:22:35.437Z,15.68
2022-10-20T00:23:35.437Z,15.68
2022-10-20T00:24:35.437Z,15.67
2022-10-20T00:25:35.424Z,15.64
2022-10-20T00:26:35.437Z,15.58
2022-10-20T00:27:35.438Z,15.54
2022-10-20T00:28:35.425Z,15.5
2022-10-20T00:29:35.425Z,15.45
2022-10-20T00:30:35.439Z,15.41
2022-10-20T00:31:35.438Z,15.39
2022-10-20T00:32:35.426Z,15.39
2022-10-20T00:33:35.504Z,15.38
2022-10-20T00:34:35.440Z,15.36
2022-10-20T00:35:35.439Z,15.36
2022-10-20T00:36:35.427Z,15.35
2022-10-20T00:38:35.441Z,15.3
2022-10-20T00:39:35.440Z,15.29
2022-10-20T00:40:35.429Z,15.28
2022-10-20T00:41:35.442Z,15.26
2022-10-20T00:42:35.442Z,15.22
2022-10-20T00:43:35.443Z,15.18
2022-10-20T00:44:35.429Z,15.17
2022-10-20T00:45:35.492Z,15.15
2022-10-20T00:46:35.443Z,15.15
2022-10-20T00:47:35.430Z,15.14
2022-10-20T00:48:35.430Z,15.12
2022-10-20T00:49:35.444Z,15.1
2022-10-20T00:50:35.445Z,15.08
2022-10-20T00:51:35.431Z,15.08
2022-10-20T00:52:35.471Z,15.05
2022-10-20T00:53:35.444Z,15.04
2022-10-20T00:54:35.445Z,15.04
2022-10-20T00:55:35.432Z,15.02
2022-10-20T00:56:35.445Z,15
2022-10-20T00:57:35.445Z,14.99
2022-10-20T00:58:35.447Z,14.99
2022-10-20T00:59:44.691Z,14.99
2022-10-20T01:00:35.447Z,14.99
2022-10-20T01:01:35.490Z,14.99
2022-10-20T01:02:35.448Z,15.01
2022-10-20T01:03:35.434Z,15.01
2022-10-20T01:04:35.448Z,15
2022-10-20T01:05:35.447Z,14.99
2022-10-20T01:06:35.449Z,14.98
2022-10-20T01:07:35.435Z,14.95
2022-10-20T01:08:35.448Z,14.93
2022-10-20T01:09:35.450Z,14.93
2022-10-20T01:10:35.436Z,14.92
2022-10-20T01:11:35.436Z,14.91
2022-10-20T01:12:35.449Z,14.9
2022-10-20T01:13:35.451Z,14.9
2022-10-20T01:14:35.437Z,14.9
2022-10-20T01:15:35.451Z,14.89
2022-10-20T01:16:35.450Z,14.88
2022-10-20T01:17:35.452Z,14.89
2022-10-20T01:18:35.438Z,14.89
2022-10-20T01:19:35.451Z,14.86
2022-10-20T01:20:35.455Z,14.85
2022-10-20T01:21:35.453Z,14.84
2022-10-20T01:22:35.439Z,14.82
2022-10-20T01:23:35.453Z,14.79
2022-10-20T01:24:35.454Z,14.78
2022-10-20T01:25:35.454Z,14.76
2022-10-20T01:26:35.440Z,14.75
2022-10-20T01:27:35.454Z,14.71
2022-10-20T01:28:35.454Z,14.69
2022-10-20T01:29:35.441Z,14.68
2022-10-20T01:30:35.441Z,14.66
2022-10-20T01:31:35.454Z,14.64
2022-10-20T01:32:35.496Z,14.63
2022-10-20T01:33:35.442Z,14.62
2022-10-20T01:34:35.455Z,14.61
2022-10-20T01:35:35.455Z,14.61
2022-10-20T01:36:35.457Z,14.6
2022-10-20T01:37:35.443Z,14.57
2022-10-20T01:38:35.457Z,14.55
2022-10-20T01:39:35.457Z,14.56
2022-10-20T01:40:35.457Z,14.56
2022-10-20T01:41:35.444Z,14.55
2022-10-20T01:42:35.458Z,14.54
2022-10-20T01:43:35.458Z,14.54
2022-10-20T01:44:35.445Z,14.56
2022-10-20T01:45:35.445Z,14.55
2022-10-20T01:46:35.459Z,14.54
2022-10-20T01:47:35.459Z,14.55
2022-10-20T01:48:35.446Z,14.55
2022-10-20T01:49:35.446Z,14.55
2022-10-20T01:50:35.460Z,14.55
2022-10-20T01:51:35.461Z,14.56
2022-10-20T01:52:35.447Z,14.56
2022-10-20T01:53:35.461Z,14.57
2022-10-20T01:54:35.460Z,14.56
2022-10-20T01:55:35.461Z,14.57
2022-10-20T01:56:35.448Z,14.57
2022-10-20T01:57:35.462Z,14.57
2022-10-20T01:58:35.505Z,14.56
2022-10-20T01:59:35.462Z,14.56
2022-10-20T02:00:35.449Z,14.55
2022-10-20T02:01:35.463Z,14.54
2022-10-20T02:02:35.462Z,14.55
2022-10-20T02:03:35.463Z,14.55
2022-10-20T02:04:35.450Z,14.54
2022-10-20T02:05:35.464Z,14.53
2022-10-20T02:06:35.463Z,14.52
2022-10-20T02:07:35.451Z,14.52
2022-10-20T02:08:35.451Z,14.5
2022-10-20T02:09:35.465Z,14.5
2022-10-20T02:10:35.465Z,14.51
2022-10-20T02:11:35.452Z,14.51
2022-10-20T02:12:35.466Z,14.52
2022-10-20T02:13:35.466Z,14.53
2022-10-20T02:14:35.466Z,14.55
2022-10-20T02:15:35.453Z,14.59
2022-10-20T02:16:35.467Z,14.62
2022-10-20T02:17:35.467Z,14.66
2022-10-20T02:18:35.467Z,14.73
2022-10-20T02:19:35.454Z,14.81
2022-10-20T02:20:35.468Z,14.86
2022-10-20T02:21:35.467Z,14.92
2022-10-20T02:22:35.475Z,14.98
2022-10-20T02:23:35.455Z,15.02
2022-10-20T02:24:35.469Z,15.05
2022-10-20T02:25:35.468Z,15.09
2022-10-20T02:26:35.456Z,15.16
2022-10-20T02:27:35.456Z,15.23
2022-10-20T02:28:35.469Z,15.27
2022-10-20T02:29:35.469Z,15.31
2022-10-20T02:30:35.457Z,15.34
2022-10-20T02:31:35.471Z,15.36
2022-10-20T02:32:35.471Z,15.39
2022-10-20T02:33:35.470Z,15.42
2022-10-20T02:34:35.458Z,15.44
2022-10-20T02:35:35.472Z,15.45
2022-10-20T02:36:35.472Z,15.48
2022-10-20T02:37:35.472Z,15.53
2022-10-20T02:38:44.717Z,15.58
2022-10-20T02:39:35.473Z,15.58
2022-10-20T02:40:35.472Z,15.61
2022-10-20T02:41:35.460Z,15.66
2022-10-20T02:42:35.460Z,15.67
2022-10-20T02:43:35.474Z,15.68
2022-10-20T02:44:35.473Z,15.69
2022-10-20T02:45:35.461Z,15.68
2022-10-20T02:46:35.461Z,15.69
2022-10-20T02:47:35.475Z,15.71
2022-10-20T02:48:35.474Z,15.74
2022-10-20T02:49:35.462Z,15.77
2022-10-20T02:50:35.476Z,15.78
2022-10-20T02:51:35.476Z,15.78
2022-10-20T02:52:35.476Z,15.8
2022-10-20T02:53:35.476Z,15.82
2022-10-20T02:54:35.477Z,15.82
2022-10-20T02:55:35.477Z,15.82
2022-10-20T02:56:35.477Z,15.84
2022-10-20T02:57:35.464Z,15.84
2022-10-20T02:58:35.477Z,15.83
2022-10-20T02:59:35.478Z,15.84
2022-10-20T03:00:35.479Z,15.86
2022-10-20T03:01:35.465Z,15.88
2022-10-20T03:02:35.479Z,15.89
2022-10-20T03:03:35.479Z,15.91
2022-10-20T03:04:35.466Z,15.89
2022-10-20T03:05:35.466Z,15.85
2022-10-20T03:06:35.480Z,15.83
2022-10-20T03:07:35.482Z,15.83
2022-10-20T03:08:35.467Z,15.84
2022-10-20T03:09:35.481Z,15.84
2022-10-20T03:10:35.481Z,15.85
2022-10-20T03:11:35.482Z,15.86
2022-10-20T03:12:35.468Z,15.87
2022-10-20T03:13:35.482Z,15.86
2022-10-20T03:14:35.483Z,15.86
2022-10-20T03:15:35.483Z,15.87
2022-10-20T03:16:35.469Z,15.89
2022-10-20T03:17:35.483Z,15.88
2022-10-20T03:18:35.483Z,15.87
2022-10-20T03:19:35.493Z,15.88
2022-10-20T03:20:35.470Z,15.86
2022-10-20T03:21:35.484Z,15.84
2022-10-20T03:22:35.485Z,15.84
2022-10-20T03:23:35.471Z,15.85
2022-10-20T03:24:35.471Z,15.85
2022-10-20T03:25:35.485Z,15.85
2022-10-20T03:26:35.486Z,15.86
2022-10-20T03:27:35.472Z,15.85
2022-10-20T03:28:35.485Z,15.84
2022-10-20T03:29:35.485Z,15.85
2022-10-20T03:30:35.487Z,15.87
2022-10-20T03:31:35.486Z,15.87
2022-10-20T03:32:35.487Z,15.86
2022-10-20T03:33:35.487Z,15.83
2022-10-20T03:34:35.487Z,15.83
2022-10-20T03:35:35.474Z,15.82
2022-10-20T03:36:35.487Z,15.82
2022-10-20T03:37:35.488Z,15.82
2022-10-20T03:38:35.475Z,15.84
2022-10-20T03:39:35.476Z,15.85
2022-10-20T03:40:35.489Z,15.86
2022-10-20T03:41:35.489Z,15.87
2022-10-20T03:42:35.476Z,15.89
2022-10-20T03:43:35.554Z,15.91
2022-10-20T03:44:35.491Z,15.92
2022-10-20T03:45:35.491Z,15.94
2022-10-20T03:46:35.477Z,15.96
2022-10-20T03:47:35.491Z,15.97
2022-10-20T03:48:35.492Z,15.97
2022-10-20T03:49:35.491Z,15.98
2022-10-20T03:50:35.478Z,16
2022-10-20T03:51:35.491Z,16.02
2022-10-20T03:52:35.492Z,16.04
2022-10-20T03:53:35.492Z,16.07
2022-10-20T03:54:35.480Z,16.08
2022-10-20T03:55:35.517Z,16.09
2022-10-20T03:56:35.493Z,16.09
2022-10-20T03:57:35.481Z,16.1
2022-10-20T03:58:35.481Z,16.11
2022-10-20T03:59:35.495Z,16.11
2022-10-20T04:00:35.494Z,16.11
2022-10-20T04:01:35.481Z,16.12
2022-10-20T04:02:35.482Z,16.12
2022-10-20T04:03:35.496Z,16.09
2022-10-20T04:04:35.495Z,16.04
2022-10-20T04:05:35.482Z,16
2022-10-20T04:06:35.496Z,15.95
2022-10-20T04:07:35.497Z,15.93
2022-10-20T04:08:35.497Z,15.95
2022-10-20T04:09:35.484Z,15.96
2022-10-20T04:10:35.498Z,15.92
2022-10-20T04:11:35.497Z,15.91
2022-10-20T04:12:35.498Z,15.91
2022-10-20T04:13:35.485Z,15.89
2022-10-20T04:14:35.499Z,15.87
2022-10-20T04:15:35.498Z,15.88
2022-10-20T04:16:44.743Z,15.89
2022-10-20T04:17:35.487Z,15.87
2022-10-20T04:18:35.499Z,15.85
2022-10-20T04:19:35.499Z,15.86
2022-10-20T04:20:35.487Z,15.85
2022-10-20T04:21:35.487Z,15.83
2022-10-20T04:22:35.500Z,15.82
2022-10-20T04:23:35.500Z,15.81
2022-10-20T04:24:35.488Z,15.82
2022-10-20T04:25:35.502Z,15.84
2022-10-20T04:26:35.501Z,15.82
2022-10-20T04:27:35.502Z,15.81
2022-10-20T04:28:35.501Z,15.8
2022-10-20T04:29:35.503Z,15.81
2022-10-20T04:30:35.502Z,15.8
2022-10-20T04:31:35.502Z,15.81
2022-10-20T04:32:35.491Z,15.8
2022-10-20T04:33:35.504Z,15.78
2022-10-20T04:34:35.504Z,15.78
2022-10-20T04:35:35.491Z,15.79
2022-10-20T04:36:35.491Z,15.78
2022-10-20T04:37:35.505Z,15.75
2022-10-20T04:38:35.505Z,15.74
2022-10-20T04:39:35.492Z,15.74
2022-10-20T04:40:35.532Z,15.73
2022-10-20T04:41:35.505Z,15.75
2022-10-20T04:42:35.506Z,15.8
2022-10-20T04:43:35.493Z,15.83
2022-10-20T04:44:35.507Z,15.83
2022-10-20T04:45:35.507Z,15.82
2022-10-20T04:46:35.507Z,15.83
2022-10-20T04:47:35.494Z,15.86
2022-10-20T04:48:35.508Z,15.86
2022-10-20T04:49:35.508Z,15.88
2022-10-20T04:50:35.508Z,15.89
2022-10-20T04:51:35.495Z,15.89
2022-10-20T04:52:35.510Z,15.86
2022-10-20T04:53:35.508Z,15.84
2022-10-20T04:54:35.496Z,15.84
2022-10-20T04:55:35.496Z,15.84
2022-10-20T04:56:35.510Z,15.84
2022-10-20T04:57:35.510Z,15.85
2022-10-20T04:58:35.497Z,15.87
2022-10-20T04:59:35.497Z,15.87
2022-10-20T05:00:35.511Z,15.86
2022-10-20T05:01:35.510Z,15.82
2022-10-20T05:02:35.498Z,15.81
2022-10-20T05:03:35.512Z,15.8
2022-10-20T05:04:35.512Z,15.8
2022-10-20T05:05:35.512Z,15.83
2022-10-20T05:06:35.512Z,15.83
2022-10-20T05:07:35.513Z,15.8
2022-10-20T05:08:35.513Z,15.79
2022-10-20T05:09:35.512Z,15.8
2022-10-20T05:10:35.501Z,15.81
2022-10-20T05:11:35.513Z,15.82
2022-10-20T05:12:35.514Z,15.84
2022-10-20T05:13:35.501Z,15.87
2022-10-20T05:14:35.502Z,15.9
2022-10-20T05:15:35.515Z,15.92
2022-10-20T05:16:35.515Z,15.95
2022-10-20T05:17:35.502Z,15.97
2022-10-20T05:18:35.502Z,15.96
2022-10-20T05:19:35.516Z,15.95
2022-10-20T05:20:35.515Z,15.95
2022-10-20T05:21:35.503Z,15.97
2022-10-20T05:22:35.517Z,15.95
2022-10-20T05:23:35.517Z,15.96
2022-10-20T05:24:35.518Z,15.97
2022-10-20T05:25:35.504Z,15.98
2022-10-20T05:26:35.518Z,15.98
2022-10-20T05:27:35.517Z,15.98
2022-10-20T05:28:35.519Z,15.98
2022-10-20T05:29:35.505Z,15.97
2022-10-20T05:30:35.519Z,15.95
2022-10-20T05:31:35.519Z,15.92
2022-10-20T05:32:35.506Z,15.93
2022-10-20T05:33:35.506Z,15.93
2022-10-20T05:34:35.520Z,15.93
2022-10-20T05:35:35.521Z,15.97
2022-10-20T05:36:35.507Z,16
2022-10-20T05:37:35.584Z,16.03
2022-10-20T05:38:35.521Z,16.02
2022-10-20T05:39:35.521Z,16.03
2022-10-20T05:40:35.508Z,16.03
2022-10-20T05:41:35.522Z,16.01
2022-10-20T05:42:35.522Z,16
2022-10-20T05:43:35.522Z,16.02
2022-10-20T05:44:35.509Z,16.03
2022-10-20T05:45:35.523Z,16
2022-10-20T05:46:35.522Z,15.99
2022-10-20T05:47:35.524Z,15.98
2022-10-20T05:48:35.510Z,15.97
2022-10-20T05:49:35.548Z,15.98
2022-10-20T05:50:35.524Z,16.01
2022-10-20T05:51:35.511Z,16.04
2022-10-20T05:52:35.511Z,16.04
2022-10-20T05:53:35.525Z,16.06
2022-10-20T05:54:35.526Z,16.1
2022-10-20T05:55:44.770Z,16.16
2022-10-20T05:56:35.550Z,16.18
2022-10-20T05:57:35.527Z,16.17
2022-10-20T05:58:40.880Z,16.15
2022-10-20T05:59:35.513Z,16.12
2022-10-20T06:00:35.527Z,16.1
2022-10-20T06:01:35.528Z,16.1
2022-10-20T06:02:35.527Z,16.11
2022-10-20T06:03:35.514Z,16.12
2022-10-20T06:04:35.527Z,16.11
2022-10-20T06:05:35.528Z,16.12
2022-10-20T06:06:35.529Z,16.14
2022-10-20T06:07:35.516Z,16.16
2022-10-20T06:08:35.530Z,16.15
2022-10-20T06:09:35.529Z,16.14
2022-10-20T06:10:35.516Z,16.16
2022-10-20T06:11:35.518Z,16.19
2022-10-20T06:12:35.531Z,16.21
2022-10-20T06:13:35.531Z,16.2
2022-10-20T06:14:35.517Z,16.18
2022-10-20T06:15:35.518Z,16.17
2022-10-20T06:16:35.532Z,16.15
2022-10-20T06:17:35.531Z,16.14
2022-10-20T06:18:35.518Z,16.12
2022-10-20T06:19:35.533Z,16.14
2022-10-20T06:20:35.533Z,16.16
2022-10-20T06:21:35.532Z,16.17
2022-10-20T06:22:35.532Z,16.17
2022-10-20T06:23:35.534Z,16.17
2022-10-20T06:24:35.535Z,16.18
2022-10-20T06:25:35.533Z,16.2
2022-10-20T06:26:35.521Z,16.21
2022-10-20T06:27:35.535Z,16.23
2022-10-20T06:28:35.535Z,16.26
2022-10-20T06:29:35.521Z,16.28
2022-10-20T06:30:35.523Z,16.29
2022-10-20T06:31:35.535Z,16.29
2022-10-20T06:32:35.536Z,16.31
2022-10-20T06:33:35.523Z,16.31
2022-10-20T06:34:35.577Z,16.29
2022-10-20T06:35:35.536Z,16.28
2022-10-20T06:36:35.536Z,16.29
2022-10-20T06:37:35.524Z,16.31
2022-10-20T06:38:35.538Z,16.29
2022-10-20T06:39:35.537Z,16.29
2022-10-20T06:40:35.538Z,16.29
2022-10-20T06:41:35.525Z,16.29
2022-10-20T06:42:35.539Z,16.29
2022-10-20T06:43:35.539Z,16.32
2022-10-20T06:44:35.539Z,16.35
2022-10-20T06:45:35.526Z,16.36
2022-10-20T06:46:35.581Z,16.35
2022-10-20T06:47:35.541Z,16.35
2022-10-20T06:48:35.527Z,16.39
2022-10-20T06:49:35.528Z,16.4
2022-10-20T06:50:35.541Z,16.37
2022-10-20T06:51:35.541Z,16.37
2022-10-20T06:52:35.528Z,16.39
2022-10-20T06:53:35.542Z,16.37
2022-10-20T06:54:35.542Z,16.33
2022-10-20T06:55:35.542Z,16.32
2022-10-20T06:56:35.529Z,16.33
2022-10-20T06:57:35.542Z,16.33
2022-10-20T06:58:38.654Z,16.31
2022-10-20T06:59:35.543Z,16.28
2022-10-20T07:00:35.543Z,16.29
2022-10-20T07:01:35.544Z,16.29
2022-10-20T07:02:35.544Z,16.32
2022-10-20T07:03:35.544Z,16.34
2022-10-20T07:04:35.531Z,16.37
2022-10-20T07:05:35.545Z,16.37
2022-10-20T07:06:35.546Z,16.42
2022-10-20T07:07:35.532Z,16.43
2022-10-20T07:08:35.532Z,16.41
2022-10-20T07:09:35.546Z,16.42
2022-10-20T07:10:35.545Z,16.43
2022-10-20T07:11:35.533Z,16.45
2022-10-20T07:12:35.534Z,16.45
2022-10-20T07:13:35.547Z,16.48
2022-10-20T07:14:35.547Z,16.49
2022-10-20T07:15:35.534Z,16.49
2022-10-20T07:16:35.548Z,16.49
2022-10-20T07:17:35.548Z,16.51
2022-10-20T07:18:35.549Z,16.53
2022-10-20T07:19:35.535Z,16.53
2022-10-20T07:20:35.548Z,16.54
2022-10-20T07:21:35.548Z,16.56
2022-10-20T07:22:35.550Z,16.58
2022-10-20T07:23:35.536Z,16.59
2022-10-20T07:24:35.550Z,16.6
2022-10-20T07:25:35.550Z,16.58
2022-10-20T07:26:35.537Z,16.57
2022-10-20T07:27:35.538Z,16.57
2022-10-20T07:28:35.551Z,16.57
2022-10-20T07:29:35.552Z,16.58
2022-10-20T07:30:35.538Z,16.62
2022-10-20T07:31:35.552Z,16.67
2022-10-20T07:32:35.552Z,16.74
2022-10-20T07:33:44.811Z,16.78
2022-10-20T07:34:35.540Z,16.81
2022-10-20T07:35:35.553Z,16.79
2022-10-20T07:36:35.553Z,16.74
2022-10-20T07:37:35.553Z,16.68
2022-10-20T07:38:35.541Z,16.66
2022-10-20T07:39:35.555Z,16.65
2022-10-20T07:40:35.555Z,16.66
2022-10-20T07:41:35.554Z,16.67
2022-10-20T07:42:35.543Z,16.67
2022-10-20T07:43:35.605Z,16.69
2022-10-20T07:44:35.556Z,16.7
2022-10-20T07:45:35.543Z,16.69
2022-10-20T07:46:35.543Z,16.67
2022-10-20T07:47:35.557Z,16.65
2022-10-20T07:48:35.558Z,16.66
2022-10-20T07:49:35.544Z,16.68
2022-10-20T07:50:35.558Z,16.7
2022-10-20T07:51:35.558Z,16.7
2022-10-20T07:52:35.557Z,16.75
2022-10-20T07:53:35.545Z,16.81
2022-10-20T07:54:35.559Z,16.84
2022-10-20T07:55:35.611Z,16.86
2022-10-20T07:56:35.559Z,16.87
2022-10-20T07:57:35.546Z,16.87
2022-10-20T07:58:43.794Z,16.85
2022-10-20T07:59:35.559Z,16.84
2022-10-20T08:00:35.560Z,16.84
2022-10-20T08:01:35.547Z,16.85
2022-10-20T08:02:35.561Z,16.83
2022-10-20T08:03:35.560Z,16.83
2022-10-20T08:04:35.548Z,16.86
2022-10-20T08:05:35.549Z,16.87
2022-10-20T08:06:35.561Z,16.87
2022-10-20T08:07:35.562Z,16.94
2022-10-20T08:08:43.784Z,17.02
2022-10-20T08:10:35.563Z,17.04
2022-10-20T08:11:35.563Z,17.08
2022-10-20T08:12:35.550Z,17.17
2022-10-20T08:13:35.564Z,17.25
2022-10-20T08:14:35.564Z,17.31
2022-10-20T08:15:35.565Z,17.37
2022-10-20T08:16:35.551Z,17.4
2022-10-20T08:17:35.565Z,17.43
2022-10-20T08:18:35.565Z,17.46
2022-10-20T08:19:35.565Z,17.45
2022-10-20T08:20:35.553Z,17.48
2022-10-20T08:21:35.566Z,17.52
2022-10-20T08:22:35.566Z,17.59
2022-10-20T08:23:35.553Z,17.66
2022-10-20T08:24:35.554Z,17.69
2022-10-20T08:25:35.567Z,17.68
2022-10-20T08:26:35.568Z,17.65
2022-10-20T08:27:35.555Z,17.62
2022-10-20T08:28:35.555Z,17.61
2022-10-20T08:29:35.569Z,17.62
2022-10-20T08:30:35.569Z,17.66
2022-10-20T08:31:35.555Z,17.69
2022-10-20T08:32:35.569Z,17.71
2022-10-20T08:33:35.570Z,17.73
2022-10-20T08:34:35.570Z,17.73
2022-10-20T08:35:35.558Z,17.73
2022-10-20T08:36:35.570Z,17.75
2022-10-20T08:37:35.571Z,17.77
2022-10-20T08:38:35.571Z,17.82
2022-10-20T08:39:35.559Z,17.87
2022-10-20T08:40:35.572Z,17.86
2022-10-20T08:41:35.572Z,17.85
2022-10-20T08:42:35.559Z,17.86
2022-10-20T08:43:35.560Z,17.87
2022-10-20T08:44:35.572Z,17.93
2022-10-20T08:45:35.573Z,17.99
2022-10-20T08:46:35.560Z,18.01
2022-10-20T08:47:35.576Z,18
2022-10-20T08:48:35.574Z,18.01
2022-10-20T08:49:35.574Z,18.02
2022-10-20T08:50:35.561Z,18.04
2022-10-20T08:51:35.575Z,18.06
2022-10-20T08:52:35.575Z,18.07
2022-10-20T08:53:35.576Z,18.08
2022-10-20T08:54:35.562Z,18.04
2022-10-20T08:55:35.575Z,18.02
2022-10-20T08:56:35.578Z,17.95
2022-10-20T08:57:35.577Z,17.87
2022-10-20T08:58:35.565Z,17.81
2022-10-20T08:59:35.579Z,17.79
2022-10-20T09:00:35.578Z,17.81
2022-10-20T09:01:35.564Z,17.85
2022-10-20T09:02:35.565Z,17.91
2022-10-20T09:03:35.579Z,17.95
2022-10-20T09:04:35.579Z,17.99
2022-10-20T09:05:35.566Z,18.03
2022-10-20T09:06:35.580Z,18.06
2022-10-20T09:07:35.580Z,18.06
2022-10-20T09:08:35.580Z,18.07
2022-10-20T09:09:35.567Z,18.07
2022-10-20T09:10:35.581Z,18.07
2022-10-20T09:11:44.839Z,18.09
2022-10-20T09:12:35.580Z,18.14
2022-10-20T09:13:35.568Z,18.21
2022-10-20T09:14:35.582Z,18.25
2022-10-20T09:15:35.581Z,18.29
2022-10-20T09:16:35.582Z,18.32
2022-10-20T09:17:35.569Z,18.31
2022-10-20T09:18:35.583Z,18.33
2022-10-20T09:19:35.584Z,18.37
2022-10-20T09:20:35.583Z,18.43
2022-10-20T09:21:35.571Z,18.45
2022-10-20T09:22:35.625Z,18.52
2022-10-20T09:23:35.585Z,18.62
2022-10-20T09:24:35.571Z,18.78
2022-10-20T09:25:35.573Z,18.98
2022-10-20T09:26:35.585Z,19.14
2022-10-20T09:27:35.587Z,19.27
2022-10-20T09:28:35.573Z,19.37
2022-10-20T09:29:35.587Z,19.45
2022-10-20T09:30:35.586Z,19.56
2022-10-20T09:31:35.586Z,19.66
2022-10-20T09:32:35.574Z,19.71
2022-10-20T09:33:35.587Z,19.7
2022-10-20T09:34:35.632Z,19.69
2022-10-20T09:35:35.589Z,19.7
2022-10-20T09:36:35.576Z,19.75
2022-10-20T09:37:35.590Z,19.77
2022-10-20T09:38:35.590Z,19.78
2022-10-20T09:39:35.590Z,19.82
2022-10-20T09:40:35.577Z,19.89
2022-10-20T09:41:35.591Z,20.03
2022-10-20T09:42:35.590Z,20.2
2022-10-20T09:43:35.578Z,20.33
2022-10-20T09:44:35.579Z,20.34
2022-10-20T09:45:35.592Z,20.26
2022-10-20T09:46:35.656Z,20.21
2022-10-20T09:47:35.579Z,20.26
2022-10-20T09:48:35.593Z,20.37
2022-10-20T09:49:35.594Z,20.61
2022-10-20T09:50:35.594Z,20.82
2022-10-20T09:51:35.581Z,21
2022-10-20T09:52:35.595Z,21.15
2022-10-20T09:53:35.596Z,21.32
2022-10-20T09:54:35.595Z,21.44
2022-10-20T09:55:35.582Z,21.45
2022-10-20T09:56:35.595Z,21.53
2022-10-20T09:57:35.596Z,21.74
2022-10-20T09:58:35.600Z,21.91
2022-10-20T09:59:35.584Z,21.94
2022-10-20T10:00:35.598Z,21.85
2022-10-20T10:01:35.598Z,21.71
2022-10-20T10:02:35.585Z,21.61
2022-10-20T10:03:35.586Z,21.66
2022-10-20T10:04:35.598Z,21.76
2022-10-20T10:05:35.641Z,21.93
2022-10-20T10:06:35.586Z,22.32
2022-10-20T10:07:35.600Z,22.82
2022-10-20T10:08:35.601Z,23.35
2022-10-20T10:09:35.600Z,23.66
2022-10-20T10:10:35.588Z,23.79
2022-10-20T10:11:35.602Z,23.88
2022-10-20T10:12:35.602Z,23.93
2022-10-20T10:13:35.602Z,23.99
2022-10-20T10:14:35.590Z,24.08
2022-10-20T10:15:35.604Z,24.05
2022-10-20T10:16:35.605Z,23.93
2022-10-20T10:17:35.591Z,23.75
2022-10-20T10:18:35.591Z,23.55
2022-10-20T10:19:35.654Z,23.41
2022-10-20T10:20:35.607Z,23.31
2022-10-20T10:21:35.592Z,23.27
2022-10-20T10:22:35.593Z,23.22
2022-10-20T10:23:35.607Z,23.14
2022-10-20T10:24:35.607Z,23.04
2022-10-20T10:25:35.594Z,22.91
2022-10-20T10:26:35.608Z,22.82
2022-10-20T10:27:35.609Z,22.78
2022-10-20T10:28:35.609Z,22.76
2022-10-20T10:29:35.596Z,22.79
2022-10-20T10:30:35.610Z,22.94
2022-10-20T10:31:35.637Z,23.18
2022-10-20T10:32:35.611Z,23.29
2022-10-20T10:33:35.599Z,23.44
2022-10-20T10:34:35.611Z,23.67
2022-10-20T10:35:35.612Z,23.85
2022-10-20T10:36:35.612Z,23.96
2022-10-20T10:37:35.599Z,24.02
2022-10-20T10:38:35.612Z,24.02
2022-10-20T10:39:35.615Z,23.92
2022-10-20T10:40:35.600Z,23.75
2022-10-20T10:41:35.601Z,23.54
2022-10-20T10:42:35.615Z,23.33
2022-10-20T10:43:35.614Z,23.19
2022-10-20T10:44:35.602Z,23.09
2022-10-20T10:45:35.616Z,23.03
2022-10-20T10:46:35.617Z,22.97
2022-10-20T10:47:35.617Z,22.96
2022-10-20T10:48:35.604Z,22.99
2022-10-20T10:49:44.876Z,23.02
2022-10-20T10:50:35.617Z,23.15
2022-10-20T10:51:35.618Z,23.3
2022-10-20T10:52:35.605Z,23.44
2022-10-20T10:53:35.620Z,23.59
2022-10-20T10:54:35.621Z,23.85
2022-10-20T10:55:35.620Z,24.21
2022-10-20T10:56:35.607Z,24.43
2022-10-20T10:57:35.662Z,24.46
2022-10-20T10:58:35.621Z,24.37
2022-10-20T10:59:35.608Z,24.18
2022-10-20T11:00:35.610Z,23.91
2022-10-20T11:01:35.623Z,23.6
2022-10-20T11:02:35.624Z,23.34
2022-10-20T11:03:35.610Z,23.12
2022-10-20T11:04:35.624Z,22.9
2022-10-20T11:05:35.625Z,22.77
2022-10-20T11:06:35.624Z,22.7
2022-10-20T11:07:35.612Z,22.63
2022-10-20T11:08:35.626Z,22.52
2022-10-20T11:09:35.670Z,22.4
2022-10-20T11:10:35.626Z,22.29
2022-10-20T11:11:35.613Z,22.23
2022-10-20T11:12:35.628Z,22.2
2022-10-20T11:13:35.628Z,22.23
2022-10-20T11:14:35.628Z,22.28
2022-10-20T11:15:35.616Z,22.32
2022-10-20T11:16:35.629Z,22.34
2022-10-20T11:17:35.628Z,22.34
2022-10-20T11:18:35.616Z,22.39
2022-10-20T11:19:35.617Z,22.47
2022-10-20T11:20:35.631Z,22.51
2022-10-20T11:21:35.631Z,22.54
2022-10-20T11:22:35.618Z,22.6
2022-10-20T11:23:35.681Z,22.76
2022-10-20T11:24:35.631Z,22.94
2022-10-20T11:25:35.632Z,23.03
2022-10-20T11:26:35.619Z,23.03
2022-10-20T11:27:35.634Z,22.96
2022-10-20T11:28:35.634Z,22.9
2022-10-20T11:29:35.633Z,22.85
2022-10-20T11:30:35.621Z,22.76
2022-10-20T11:31:35.635Z,22.66
2022-10-20T11:32:35.636Z,22.63
2022-10-20T11:33:35.635Z,22.64
2022-10-20T11:34:35.623Z,22.64
2022-10-20T11:35:35.678Z,22.57
2022-10-20T11:36:35.637Z,22.5
2022-10-20T11:37:35.624Z,22.47
2022-10-20T11:38:35.624Z,22.46
2022-10-20T11:39:35.638Z,22.51
2022-10-20T11:40:35.639Z,22.57
2022-10-20T11:41:35.626Z,22.63
2022-10-20T11:42:35.640Z,22.71
2022-10-20T11:43:35.640Z,22.83
2022-10-20T11:44:35.640Z,23.03
2022-10-20T11:45:35.627Z,23.2
2022-10-20T11:46:35.641Z,23.4
2022-10-20T11:47:35.668Z,23.6
2022-10-20T11:48:35.642Z,23.7
2022-10-20T11:49:35.629Z,23.69
2022-10-20T11:50:35.643Z,23.67
2022-10-20T11:51:35.643Z,23.68
2022-10-20T11:52:35.643Z,23.7
2022-10-20T11:53:35.631Z,23.69
2022-10-20T11:54:35.645Z,23.64
2022-10-20T11:55:35.645Z,23.57
2022-10-20T11:56:35.632Z,23.56
2022-10-20T11:57:35.632Z,23.63
2022-10-20T11:58:35.645Z,23.7
2022-10-20T11:59:35.647Z,23.76
2022-10-20T12:00:35.633Z,23.74
2022-10-20T12:01:35.647Z,23.64
2022-10-20T12:02:35.648Z,23.56
2022-10-20T12:03:35.648Z,23.47
2022-10-20T12:04:35.635Z,23.35
2022-10-20T12:05:35.649Z,23.24
2022-10-20T12:06:35.650Z,23.13
2022-10-20T12:07:35.650Z,22.98
2022-10-20T12:08:35.637Z,22.77
2022-10-20T12:09:35.650Z,22.62
2022-10-20T12:10:35.650Z,22.54
2022-10-20T12:11:35.652Z,22.5
2022-10-20T12:12:35.638Z,22.45
2022-10-20T12:13:35.652Z,22.39
2022-10-20T12:14:35.652Z,22.32
2022-10-20T12:15:35.640Z,22.27
2022-10-20T12:16:35.641Z,22.25
2022-10-20T12:17:35.654Z,22.25
2022-10-20T12:18:35.654Z,22.32
2022-10-20T12:19:35.641Z,22.43
2022-10-20T12:20:35.655Z,22.55
2022-10-20T12:21:35.655Z,22.67
2022-10-20T12:22:35.656Z,22.81
2022-10-20T12:23:35.643Z,22.93
2022-10-20T12:24:35.657Z,22.99
2022-10-20T12:25:35.709Z,23.07
2022-10-20T12:26:35.658Z,23.15
2022-10-20T12:27:44.903Z,23.2
2022-10-20T12:28:35.658Z,23.23
2022-10-20T12:29:35.658Z,23.22
2022-10-20T12:30:35.659Z,23.2
2022-10-20T12:31:35.646Z,23.16
2022-10-20T12:32:35.661Z,23.07
2022-10-20T12:33:35.660Z,22.93
2022-10-20T12:34:35.647Z,22.81
2022-10-20T12:35:35.649Z,22.71
2022-10-20T12:36:35.662Z,22.55
2022-10-20T12:37:35.662Z,22.39
2022-10-20T12:38:35.649Z,22.24
2022-10-20T12:39:35.663Z,22.13
2022-10-20T12:40:35.662Z,22.03
2022-10-20T12:41:35.663Z,21.98
2022-10-20T12:42:35.650Z,21.9
2022-10-20T12:43:35.664Z,21.82
2022-10-20T12:44:35.709Z,21.79
2022-10-20T12:45:35.664Z,21.72
2022-10-20T12:46:35.652Z,21.6
2022-10-20T12:47:35.665Z,21.47
2022-10-20T12:48:35.666Z,21.39
2022-10-20T12:49:35.667Z,21.33
2022-10-20T12:50:35.654Z,21.23
2022-10-20T12:51:35.668Z,21.15
2022-10-20T12:52:35.669Z,21.1
2022-10-20T12:53:35.655Z,21.07
2022-10-20T12:54:35.655Z,21.05
2022-10-20T12:55:35.669Z,21.07
2022-10-20T12:56:35.671Z,21.08
2022-10-20T12:57:35.656Z,21.07